Time;durP1;ratioP1;P1;durP2;ratioP2;P2;SDS_P1;SDS_P2;PMS_P1;PMS_P2;Temp;Humidity;BMP_temperature;BMP_pressure;BME280_temperature;BME280_humidity;BME280_pressure;Samples;Min_cycle;Max_cycle;Signal;HPM_P1;HPM_P2
2020/12/23 00:02:00;;;;;;;2.70;1.37;;;9.20;99.90;;;;;;5078141;28;20571;-74
2020/12/23 00:04:27;;;;;;;1.37;1.20;;;9.10;99.90;;;;;;5087259;28;20654;-75
2020/12/23 00:06:55;;;;;;;1.30;1.00;;;9.10;99.90;;;;;;5078012;28;20604;-75
2020/12/23 00:09:22;;;;;;;1.37;1.17;;;9.00;99.90;;;;;;5078075;28;20299;-73
2020/12/23 00:11:52;;;;;;;1.00;0.90;;;9.00;99.90;;;;;;5081125;28;20640;-72
2020/12/23 00:14:19;;;;;;;0.63;0.60;;;8.90;99.90;;;;;;5074938;28;20259;-74
2020/12/23 00:16:45;;;;;;;0.90;0.70;;;8.80;99.90;;;;;;5075981;28;20351;-74
2020/12/23 00:19:12;;;;;;;1.43;0.80;;;8.80;99.90;;;;;;5075519;28;20209;-73
2020/12/23 00:21:39;;;;;;;1.20;0.70;;;8.70;99.90;;;;;;5079952;28;20748;-74
2020/12/23 00:24:06;;;;;;;0.60;0.60;;;8.70;99.90;;;;;;5076820;28;20224;-74
2020/12/23 00:26:32;;;;;;;0.73;0.50;;;8.70;99.90;;;;;;5085202;28;20300;-74
2020/12/23 00:28:59;;;;;;;0.60;0.60;;;8.60;99.90;;;;;;5079352;28;20301;-74
2020/12/23 00:31:25;;;;;;;0.87;0.87;;;8.60;99.90;;;;;;5081077;28;20288;-73
2020/12/23 00:33:53;;;;;;;0.80;0.67;;;8.60;99.90;;;;;;5079203;28;20210;-74
2020/12/23 00:36:19;;;;;;;1.63;0.50;;;8.60;99.90;;;;;;5080274;28;20831;-73
2020/12/23 00:38:47;;;;;;;0.60;0.50;;;8.50;99.90;;;;;;5079716;28;20573;-74
2020/12/23 00:41:13;;;;;;;0.83;0.40;;;8.40;99.90;;;;;;5080560;28;20245;-73
2020/12/23 00:43:40;;;;;;;1.80;0.60;;;8.50;99.90;;;;;;5076299;28;20277;-73
2020/12/23 00:46:11;;;;;;;1.17;0.50;;;8.40;99.90;;;;;;5076629;28;20205;-73
2020/12/23 00:48:37;;;;;;;1.27;0.60;;;8.40;99.90;;;;;;5081481;28;20264;-74
2020/12/23 00:51:08;;;;;;;0.50;0.50;;;8.40;99.90;;;;;;5080903;28;20639;-73
2020/12/23 00:53:35;;;;;;;0.40;0.40;;;8.40;99.90;;;;;;5078826;28;20201;-73
2020/12/23 00:56:02;;;;;;;1.10;0.60;;;8.40;99.90;;;;;;5078672;28;20202;-73
2020/12/23 00:58:28;;;;;;;1.33;0.60;;;8.40;99.90;;;;;;5077531;28;20201;-73
2020/12/23 01:00:55;;;;;;;0.80;0.50;;;8.30;99.90;;;;;;5076417;28;20208;-74
2020/12/23 01:03:21;;;;;;;0.70;0.60;;;8.30;99.90;;;;;;5079102;28;20309;-74
2020/12/23 01:05:47;;;;;;;0.60;0.60;;;8.30;99.90;;;;;;5081526;28;20270;-73
2020/12/23 01:08:14;;;;;;;1.13;0.60;;;8.30;99.90;;;;;;5079293;28;20215;-73
2020/12/23 01:10:40;;;;;;;0.60;0.50;;;8.20;99.90;;;;;;5080637;28;20287;-72
2020/12/23 01:13:07;;;;;;;1.00;0.57;;;8.30;99.90;;;;;;5079544;28;20246;-73
2020/12/23 01:15:35;;;;;;;0.53;0.53;;;8.30;99.90;;;;;;5079699;28;20197;-73
2020/12/23 01:18:02;;;;;;;0.97;0.73;;;8.20;99.90;;;;;;5079617;28;20213;-73
2020/12/23 01:20:28;;;;;;;0.50;0.50;;;8.20;99.90;;;;;;5083082;28;20284;-73
2020/12/23 01:22:55;;;;;;;1.13;0.60;;;8.20;99.90;;;;;;5083977;28;20299;-73
2020/12/23 01:25:21;;;;;;;0.87;0.53;;;8.20;99.90;;;;;;5078104;28;20355;-72
2020/12/23 01:27:48;;;;;;;0.40;0.40;;;8.20;99.90;;;;;;5077846;28;20227;-72
2020/12/23 01:30:16;;;;;;;0.40;0.40;;;8.20;99.90;;;;;;5085259;28;20665;-73
2020/12/23 01:32:43;;;;;;;0.60;0.60;;;8.20;99.90;;;;;;5074554;28;20252;-71
2020/12/23 01:35:10;;;;;;;0.50;0.50;;;8.20;99.90;;;;;;5077682;28;20249;-71
2020/12/23 01:37:37;;;;;;;0.73;0.60;;;8.20;99.90;;;;;;5081120;28;20603;-71
2020/12/23 01:40:03;;;;;;;0.67;0.67;;;8.20;99.90;;;;;;5081535;28;20671;-72
2020/12/23 01:42:32;;;;;;;0.77;0.70;;;8.10;99.90;;;;;;5080919;28;20212;-72
2020/12/23 01:44:59;;;;;;;0.50;0.50;;;8.10;99.90;;;;;;5074816;28;20217;-72
2020/12/23 01:47:29;;;;;;;0.40;0.40;;;8.10;99.90;;;;;;5082241;28;20327;-71
2020/12/23 01:49:55;;;;;;;0.87;0.53;;;8.10;99.90;;;;;;5078688;28;20208;-71
2020/12/23 01:52:22;;;;;;;0.40;0.40;;;8.10;99.90;;;;;;5077665;28;20230;-72
2020/12/23 01:54:50;;;;;;;0.70;0.60;;;8.10;99.90;;;;;;5079513;28;20204;-72
2020/12/23 01:57:17;;;;;;;0.67;0.50;;;8.10;99.90;;;;;;5078091;28;20205;-72
2020/12/23 01:59:45;;;;;;;0.53;0.53;;;8.10;99.90;;;;;;5077175;28;20284;-72
2020/12/23 02:02:28;;;;;;;0.73;0.57;;;8.10;99.90;;;;;;5076648;28;20205;-72
2020/12/23 02:04:55;;;;;;;0.90;0.60;;;8.10;99.90;;;;;;5075806;28;20244;-72
2020/12/23 02:07:23;;;;;;;1.13;0.70;;;8.10;99.90;;;;;;5075163;28;20206;-73
2020/12/23 02:09:52;;;;;;;0.80;0.57;;;8.20;99.90;;;;;;5075351;28;20205;-73
2020/12/23 02:12:18;;;;;;;1.00;0.50;;;8.10;99.90;;;;;;5080345;28;20310;-73
2020/12/23 02:14:45;;;;;;;0.83;0.60;;;8.20;99.90;;;;;;5082853;28;20212;-72
2020/12/23 02:17:11;;;;;;;1.17;0.70;;;8.20;99.90;;;;;;5076424;28;20205;-74
2020/12/23 02:19:49;;;;;;;0.73;0.60;;;8.20;99.90;;;;;;5075592;28;20623;-72
2020/12/23 02:22:17;;;;;;;1.70;0.70;;;8.20;99.90;;;;;;5075400;28;20232;-72
2020/12/23 02:24:46;;;;;;;0.60;0.50;;;8.20;99.90;;;;;;5077720;28;20237;-73
2020/12/23 02:27:12;;;;;;;0.40;0.40;;;8.20;99.90;;;;;;5082631;28;20557;-72
2020/12/23 02:29:42;;;;;;;0.83;0.50;;;8.10;99.90;;;;;;5079525;28;20205;-72
2020/12/23 02:32:08;;;;;;;1.57;0.70;;;8.10;99.90;;;;;;5078680;28;20292;-72
2020/12/23 02:34:35;;;;;;;0.80;0.60;;;8.10;99.90;;;;;;5077056;28;20193;-72
2020/12/23 02:37:01;;;;;;;1.10;0.80;;;8.10;99.90;;;;;;5076624;28;20662;-72
2020/12/23 02:39:28;;;;;;;0.70;0.70;;;8.10;99.90;;;;;;5079777;28;20623;-72
2020/12/23 02:41:57;;;;;;;1.17;1.00;;;8.10;99.90;;;;;;5082571;28;20360;-72
2020/12/23 02:44:24;;;;;;;0.97;0.80;;;8.20;99.90;;;;;;5075026;28;20621;-72
2020/12/23 02:46:55;;;;;;;1.00;0.90;;;8.10;99.90;;;;;;5074875;28;20721;-72
2020/12/23 02:49:22;;;;;;;0.80;0.80;;;8.10;99.90;;;;;;5079720;28;20201;-72
2020/12/23 02:51:48;;;;;;;1.97;1.10;;;8.10;99.90;;;;;;5080945;28;20208;-71
2020/12/23 02:54:15;;;;;;;2.80;1.10;;;8.10;99.90;;;;;;5079396;28;20247;-72
2020/12/23 02:56:41;;;;;;;2.03;1.73;;;8.10;99.90;;;;;;5077259;28;20576;-72
2020/12/23 02:59:08;;;;;;;1.70;1.20;;;8.10;99.90;;;;;;5078343;28;20585;-72
2020/12/23 03:01:36;;;;;;;1.37;1.20;;;8.10;99.90;;;;;;5081117;28;20203;-72
2020/12/23 03:04:02;;;;;;;2.40;1.60;;;8.00;99.90;;;;;;5075610;28;20236;-72
2020/12/23 03:06:28;;;;;;;1.77;1.67;;;8.00;99.90;;;;;;5074959;28;20219;-72
2020/12/23 03:08:55;;;;;;;1.87;1.50;;;8.00;99.90;;;;;;5077661;28;20244;-73
2020/12/23 03:11:21;;;;;;;2.10;1.90;;;8.00;99.90;;;;;;5082289;28;20236;-72
2020/12/23 03:13:48;;;;;;;2.80;1.70;;;7.90;99.90;;;;;;5078113;28;20292;-73
2020/12/23 03:16:16;;;;;;;2.07;1.63;;;7.90;99.90;;;;;;5082431;28;20213;-73
2020/12/23 03:18:42;;;;;;;2.23;1.87;;;7.90;99.90;;;;;;5078548;28;20205;-73
2020/12/23 03:21:09;;;;;;;1.67;1.50;;;7.90;99.90;;;;;;5075745;28;20311;-73
2020/12/23 03:23:36;;;;;;;1.73;1.57;;;7.90;99.90;;;;;;5076562;28;20244;-72
2020/12/23 03:26:03;;;;;;;2.97;2.00;;;7.90;99.90;;;;;;5073845;28;20306;-72
2020/12/23 03:28:32;;;;;;;3.93;1.73;;;7.90;99.90;;;;;;5077392;28;20650;-71
2020/12/23 03:30:58;;;;;;;2.10;1.63;;;7.90;99.90;;;;;;5085904;28;20244;-71
2020/12/23 03:33:26;;;;;;;5.37;2.20;;;7.90;99.90;;;;;;5076292;28;20204;-72
2020/12/23 03:35:53;;;;;;;2.03;1.83;;;7.90;99.90;;;;;;5077419;28;20347;-72
2020/12/23 03:38:19;;;;;;;2.73;1.80;;;7.90;99.90;;;;;;5075164;28;20266;-73
2020/12/23 03:40:46;;;;;;;3.03;1.80;;;7.90;99.90;;;;;;5088221;28;20288;-72
2020/12/23 03:43:12;;;;;;;3.53;1.90;;;7.80;99.90;;;;;;5080150;28;20283;-72
2020/12/23 03:45:38;;;;;;;2.20;1.73;;;7.80;99.90;;;;;;5076058;28;20220;-71
2020/12/23 03:48:05;;;;;;;3.13;1.90;;;7.80;99.90;;;;;;5078086;28;20208;-72
2020/12/23 03:50:33;;;;;;;2.67;2.17;;;7.80;99.90;;;;;;5082294;28;20200;-72
2020/12/23 03:53:00;;;;;;;2.70;1.90;;;7.80;99.90;;;;;;5080815;28;20211;-72
2020/12/23 03:55:26;;;;;;;3.50;2.00;;;7.80;99.90;;;;;;5080832;28;20197;-72
2020/12/23 03:57:53;;;;;;;2.63;1.97;;;7.70;99.90;;;;;;5081755;28;20205;-72
2020/12/23 04:00:19;;;;;;;2.57;2.37;;;7.80;99.90;;;;;;5080808;28;20223;-71
2020/12/23 04:02:46;;;;;;;2.63;1.97;;;7.70;99.90;;;;;;5079632;28;20207;-71
2020/12/23 04:05:13;;;;;;;3.10;2.20;;;7.60;99.90;;;;;;5079744;28;20265;-72
2020/12/23 04:07:40;;;;;;;2.23;2.00;;;7.60;99.90;;;;;;5082443;28;20722;-73
2020/12/23 04:10:08;;;;;;;3.00;2.07;;;7.50;99.90;;;;;;5080325;28;20281;-72
2020/12/23 04:12:35;;;;;;;2.50;1.77;;;7.50;99.90;;;;;;5080376;28;20240;-73
2020/12/23 04:15:05;;;;;;;3.27;1.93;;;7.50;99.90;;;;;;5083094;28;20235;-74
2020/12/23 04:17:31;;;;;;;3.23;2.07;;;7.50;99.90;;;;;;5077825;28;20701;-73
2020/12/23 04:19:57;;;;;;;4.50;2.13;;;7.50;99.90;;;;;;5077799;28;20746;-73
2020/12/23 04:22:28;;;;;;;2.47;1.70;;;7.50;99.90;;;;;;5082705;28;20258;-73
2020/12/23 04:24:56;;;;;;;3.10;2.00;;;7.50;99.90;;;;;;5078321;28;20217;-73
2020/12/23 04:27:22;;;;;;;2.80;1.77;;;7.50;99.90;;;;;;5077482;28;20776;-73
2020/12/23 04:29:49;;;;;;;2.53;1.83;;;7.50;99.90;;;;;;5078136;28;20292;-74
2020/12/23 04:32:15;;;;;;;2.73;1.90;;;7.50;99.90;;;;;;5089568;28;20215;-74
2020/12/23 04:34:42;;;;;;;2.73;1.63;;;7.50;99.90;;;;;;5080531;28;20247;-73
2020/12/23 04:37:08;;;;;;;3.23;1.87;;;7.50;99.90;;;;;;5082054;28;20209;-73
2020/12/23 04:39:35;;;;;;;3.27;1.47;;;7.50;99.90;;;;;;5081239;28;20269;-74
2020/12/23 04:42:02;;;;;;;1.70;1.60;;;7.50;99.90;;;;;;5079714;28;20571;-73
2020/12/23 04:44:30;;;;;;;2.23;1.77;;;7.40;99.90;;;;;;5080539;28;20306;-72
2020/12/23 04:46:57;;;;;;;3.30;1.67;;;7.40;99.90;;;;;;5081951;28;20566;-72
2020/12/23 04:49:24;;;;;;;3.53;1.90;;;7.40;99.90;;;;;;5079712;28;20269;-72
2020/12/23 04:51:53;;;;;;;3.13;2.10;;;7.40;99.90;;;;;;5081658;28;20213;-71
2020/12/23 04:54:20;;;;;;;3.67;2.00;;;7.40;99.90;;;;;;5079301;28;20206;-71
2020/12/23 04:56:47;;;;;;;2.63;2.00;;;7.20;99.90;;;;;;5083983;28;20342;-71
2020/12/23 04:59:15;;;;;;;4.03;2.00;;;7.30;99.90;;;;;;5083779;28;20296;-72
2020/12/23 05:01:42;;;;;;;3.53;2.00;;;7.20;99.90;;;;;;5080852;28;20213;-73
2020/12/23 05:04:09;;;;;;;2.27;1.77;;;7.20;99.90;;;;;;5080062;28;20267;-72
2020/12/23 05:06:36;;;;;;;2.57;1.60;;;7.10;99.90;;;;;;5079421;28;20290;-72
2020/12/23 05:09:05;;;;;;;2.40;1.80;;;7.10;99.90;;;;;;5080918;28;20205;-72
2020/12/23 05:11:33;;;;;;;1.97;1.73;;;7.00;99.90;;;;;;5077460;28;20249;-72
2020/12/23 05:14:04;;;;;;;5.63;2.10;;;7.00;99.90;;;;;;5081103;28;20200;-72
2020/12/23 05:16:33;;;;;;;3.33;2.27;;;6.90;99.90;;;;;;5083162;28;20254;-72
2020/12/23 05:19:00;;;;;;;4.27;2.20;;;6.90;99.90;;;;;;5078428;28;20205;-72
2020/12/23 05:21:28;;;;;;;3.20;1.80;;;6.90;99.90;;;;;;5078172;28;20206;-72
2020/12/23 05:23:56;;;;;;;2.80;1.60;;;6.80;99.90;;;;;;5077430;28;20356;-73
2020/12/23 05:26:23;;;;;;;4.40;1.33;;;6.80;99.90;;;;;;5079512;28;20706;-73
2020/12/23 05:28:51;;;;;;;3.40;1.20;;;6.80;99.90;;;;;;5075912;28;20283;-74
2020/12/23 05:31:18;;;;;;;5.80;1.53;;;6.70;99.90;;;;;;5077471;28;20308;-73
2020/12/23 05:33:48;;;;;;;2.80;1.20;;;6.70;99.90;;;;;;5078209;28;20247;-72
2020/12/23 05:36:15;;;;;;;3.00;1.30;;;6.70;99.90;;;;;;5076821;28;20654;-73
2020/12/23 05:38:42;;;;;;;5.23;1.47;;;6.60;99.90;;;;;;5078221;28;20209;-73
2020/12/23 05:41:14;;;;;;;4.67;1.30;;;6.60;99.90;;;;;;5079583;28;20292;-73
2020/12/23 05:43:41;;;;;;;4.60;1.27;;;6.60;99.90;;;;;;5075735;28;20235;-73
2020/12/23 05:46:10;;;;;;;3.77;1.50;;;6.50;99.90;;;;;;5075090;28;20320;-73
2020/12/23 05:48:39;;;;;;;4.20;1.30;;;6.40;99.90;;;;;;5078611;28;20344;-72
2020/12/23 05:51:07;;;;;;;2.60;1.30;;;6.50;99.90;;;;;;5077065;28;20209;-74
2020/12/23 05:53:35;;;;;;;4.47;1.50;;;6.40;99.90;;;;;;5076403;28;20297;-73
2020/12/23 05:56:05;;;;;;;4.67;1.23;;;6.40;99.90;;;;;;5083801;28;20292;-74
2020/12/23 05:58:33;;;;;;;1.60;1.00;;;6.40;99.90;;;;;;5082926;28;20725;-74
2020/12/23 06:01:00;;;;;;;2.73;1.23;;;6.30;99.90;;;;;;5077715;28;20213;-74
2020/12/23 06:03:55;;;;;;;6.50;1.87;;;6.30;99.90;;;;;;5079006;28;20205;-73
2020/12/23 06:06:25;;;;;;;4.53;1.30;;;6.30;99.90;;;;;;5081825;28;20578;-73
2020/12/23 06:08:53;;;;;;;5.10;1.70;;;6.30;99.90;;;;;;5078916;28;20201;-75
2020/12/23 06:11:42;;;;;;;5.10;1.57;;;6.30;99.90;;;;;;5077950;28;20229;-73
2020/12/23 06:14:16;;;;;;;4.00;1.50;;;6.30;99.90;;;;;;5080334;28;20204;-74
2020/12/23 06:16:48;;;;;;;5.13;0.90;;;6.30;99.90;;;;;;5077007;28;20234;-74
2020/12/23 06:19:26;;;;;;;3.63;1.20;;;6.30;99.90;;;;;;5077896;28;20355;-73
2020/12/23 06:21:54;;;;;;;3.30;1.50;;;6.30;99.90;;;;;;5076829;28;20578;-75
2020/12/23 06:24:21;;;;;;;4.87;1.30;;;6.30;99.90;;;;;;5078319;28;20645;-73
2020/12/23 06:26:50;;;;;;;4.90;1.33;;;6.30;99.90;;;;;;5078119;28;20205;-74
2020/12/23 06:29:19;;;;;;;4.47;1.27;;;6.30;99.90;;;;;;5077456;28;20535;-75
2020/12/23 06:31:47;;;;;;;7.17;1.70;;;6.20;99.90;;;;;;5080313;28;20285;-74
2020/12/23 06:34:15;;;;;;;5.00;1.20;;;6.20;99.90;;;;;;5077257;28;20212;-73
2020/12/23 06:36:42;;;;;;;8.97;1.80;;;6.20;99.90;;;;;;5076935;28;20228;-74
2020/12/23 06:39:27;;;;;;;2.93;1.47;;;6.20;99.90;;;;;;5077286;28;20206;-73
2020/12/23 06:41:55;;;;;;;5.87;1.90;;;6.20;99.90;;;;;;5080647;28;20258;-72
2020/12/23 06:44:21;;;;;;;4.30;1.90;;;6.20;99.90;;;;;;5078465;28;20227;-72
2020/12/23 06:47:08;;;;;;;6.70;1.73;;;6.20;99.90;;;;;;5077234;28;20292;-72
2020/12/23 06:49:35;;;;;;;6.63;2.13;;;6.20;99.90;;;;;;5076636;28;20568;-73
2020/12/23 06:52:02;;;;;;;6.80;1.63;;;6.10;99.90;;;;;;5080684;28;20580;-74
2020/12/23 06:54:48;;;;;;;9.90;1.97;;;6.10;99.90;;;;;;5076718;28;20685;-74
2020/12/23 06:58:00;;;;;;;6.17;2.00;;;6.10;99.90;;;;;;5089687;28;20281;-72
2020/12/23 07:00:47;;;;;;;7.37;2.20;;;6.00;99.90;;;;;;5077646;28;20292;-77
2020/12/23 07:03:13;;;;;;;7.73;2.10;;;6.00;99.90;;;;;;5083593;28;20335;-76
2020/12/23 07:05:46;;;;;;;6.10;1.70;;;6.00;99.90;;;;;;5076615;28;20240;-76
2020/12/23 07:08:16;;;;;;;6.03;2.40;;;6.00;99.90;;;;;;5089313;28;20209;-73
2020/12/23 07:10:48;;;;;;;5.70;3.10;;;6.00;99.90;;;;;;5085485;28;20249;-76
2020/12/23 07:13:17;;;;;;;8.40;2.10;;;6.00;99.90;;;;;;5096690;28;20236;-75
2020/12/23 07:15:51;;;;;;;3.27;1.73;;;6.00;99.90;;;;;;5087296;28;20241;-76
2020/12/23 07:18:19;;;;;;;6.03;1.70;;;6.00;99.90;;;;;;5082280;28;20211;-77
2020/12/23 07:20:47;;;;;;;6.30;1.80;;;6.00;99.90;;;;;;5097474;28;20276;-77
2020/12/23 07:23:15;;;;;;;10.40;2.33;;;5.90;99.90;;;;;;5084171;28;20880;-77
2020/12/23 07:25:47;;;;;;;6.47;2.80;;;5.90;99.90;;;;;;5088521;28;20246;-77
2020/12/23 07:28:16;;;;;;;4.47;1.80;;;5.90;99.90;;;;;;5094646;28;20208;-77
2020/12/23 07:30:43;;;;;;;4.40;2.10;;;5.90;99.90;;;;;;5083249;28;20319;-75
2020/12/23 07:33:15;;;;;;;4.80;1.73;;;5.90;99.90;;;;;;5078971;28;20209;-76
2020/12/23 07:35:45;;;;;;;4.30;2.37;;;5.90;99.90;;;;;;5088314;28;20209;-77
2020/12/23 07:38:13;;;;;;;6.13;2.60;;;5.90;99.90;;;;;;5077539;28;20288;-79
2020/12/23 07:40:41;;;;;;;5.43;2.20;;;5.80;99.90;;;;;;5088061;28;20244;-73
2020/12/23 07:43:09;;;;;;;5.27;2.47;;;5.80;99.90;;;;;;5093073;28;20731;-75
2020/12/23 07:45:36;;;;;;;6.40;2.00;;;5.80;99.90;;;;;;5084984;28;20285;-74
2020/12/23 07:48:05;;;;;;;6.33;2.83;;;5.80;99.90;;;;;;5087009;28;20204;-72
2020/12/23 07:50:33;;;;;;;9.67;2.20;;;5.80;99.90;;;;;;5088058;28;20306;-74
2020/12/23 07:53:11;;;;;;;5.70;2.50;;;5.80;99.90;;;;;;5084013;28;20223;-75
2020/12/23 07:55:39;;;;;;;6.67;2.70;;;5.80;99.90;;;;;;5092776;28;20713;-73
2020/12/23 07:58:05;;;;;;;4.60;2.70;;;5.80;99.90;;;;;;5089597;28;20212;-73
2020/12/23 08:00:33;;;;;;;11.40;3.40;;;5.90;99.90;;;;;;5075798;28;20611;-74
2020/12/23 08:03:00;;;;;;;5.00;3.30;;;5.90;99.90;;;;;;5084764;28;20292;-74
2020/12/23 08:05:27;;;;;;;7.53;3.30;;;6.00;99.90;;;;;;5075976;28;20757;-73
2020/12/23 08:07:53;;;;;;;10.43;4.27;;;6.20;99.90;;;;;;5085986;28;20236;-73
2020/12/23 08:10:21;;;;;;;8.73;3.63;;;6.20;99.90;;;;;;5087903;28;20209;-72
2020/12/23 08:12:55;;;;;;;7.70;3.83;;;6.30;99.90;;;;;;5078966;28;20324;-74
2020/12/23 08:15:22;;;;;;;8.33;4.10;;;6.50;99.90;;;;;;5088888;28;20216;-76
2020/12/23 08:17:58;;;;;;;7.90;4.33;;;6.70;99.90;;;;;;5077368;28;20223;-74
2020/12/23 08:20:25;;;;;;;8.23;4.90;;;6.80;99.90;;;;;;5085732;28;20208;-74
2020/12/23 08:22:51;;;;;;;11.33;4.73;;;7.00;99.90;;;;;;5090632;28;20272;-76
2020/12/23 08:25:19;;;;;;;8.07;4.50;;;7.00;99.90;;;;;;5085073;28;20217;-73
2020/12/23 08:27:48;;;;;;;8.77;5.33;;;7.20;99.90;;;;;;5084066;28;20224;-73
2020/12/23 08:30:18;;;;;;;8.50;5.30;;;7.50;99.90;;;;;;5084268;28;20240;-73
2020/12/23 08:32:52;;;;;;;8.17;4.73;;;7.70;99.90;;;;;;5085706;28;20201;-72
2020/12/23 08:35:20;;;;;;;9.60;5.00;;;8.00;99.90;;;;;;5082076;28;20213;-74
2020/12/23 08:37:47;;;;;;;5.77;3.73;;;8.20;99.90;;;;;;5079911;28;20208;-73
2020/12/23 08:40:16;;;;;;;9.70;5.10;;;8.40;99.90;;;;;;5091547;28;20607;-71
2020/12/23 08:42:51;;;;;;;10.73;4.77;;;8.90;99.90;;;;;;5090808;28;20571;-75
2020/12/23 08:45:22;;;;;;;6.20;3.60;;;10.40;99.90;;;;;;5094305;28;20531;-73
2020/12/23 08:47:50;;;;;;;6.53;4.07;;;12.10;99.90;;;;;;5092449;28;20676;-77
2020/12/23 08:50:19;;;;;;;6.87;4.00;;;14.00;99.90;;;;;;5101760;28;20208;-76
2020/12/23 08:52:46;;;;;;;8.87;4.37;;;15.80;99.90;;;;;;5093939;28;20209;-75
2020/12/23 08:55:18;;;;;;;7.93;3.77;;;17.50;93.40;;;;;;5096495;28;20300;-78
2020/12/23 08:57:45;;;;;;;8.30;4.70;;;18.90;84.00;;;;;;5093742;28;20205;-81
2020/12/23 09:00:17;;;;;;;7.13;4.65;;;20.40;73.90;;;;;;5081703;28;20236;-76
2020/12/23 09:02:44;;;;;;;5.47;3.78;;;21.80;62.90;;;;;;5084621;28;20264;-78
2020/12/23 09:05:31;;;;;;;7.63;3.85;;;22.80;56.30;;;;;;5081620;28;20237;-75
2020/12/23 09:08:05;;;;;;;8.18;4.05;;;23.70;52.40;;;;;;5085984;28;20217;-78
2020/12/23 09:10:32;;;;;;;9.15;4.22;;;24.30;50.60;;;;;;5099433;28;20298;-72
2020/12/23 09:13:11;;;;;;;7.45;4.10;;;24.80;48.50;;;;;;5083770;28;20229;-76
2020/12/23 09:15:38;;;;;;;6.80;3.67;;;25.40;47.10;;;;;;5096516;28;20244;-75
2020/12/23 09:18:06;;;;;;;7.68;4.00;;;26.00;45.70;;;;;;5090392;28;20204;-76
2020/12/23 09:20:35;;;;;;;8.30;4.50;;;26.70;43.90;;;;;;5090181;28;20213;-76
2020/12/23 09:23:02;;;;;;;8.40;4.50;;;27.40;42.40;;;;;;5091749;28;20202;-77
2020/12/23 09:25:31;;;;;;;8.60;4.00;;;28.00;40.60;;;;;;5092086;28;20232;-76
2020/12/23 09:28:05;;;;;;;5.60;3.70;;;28.10;39.70;;;;;;5094071;28;20287;-76
2020/12/23 09:30:34;;;;;;;8.50;4.40;;;28.30;39.10;;;;;;5086167;28;20585;-76
2020/12/23 09:33:01;;;;;;;6.53;4.18;;;28.60;38.30;;;;;;5095015;28;20287;-77
2020/12/23 09:35:28;;;;;;;7.38;4.53;;;28.80;37.50;;;;;;5091882;28;20288;-74
2020/12/23 09:38:07;;;;;;;7.47;4.05;;;28.90;37.70;;;;;;5085504;28;20603;-77
2020/12/23 09:40:35;;;;;;;8.90;4.82;;;29.60;36.80;;;;;;5098764;28;20663;-77
2020/12/23 09:43:02;;;;;;;7.53;4.00;;;30.30;36.20;;;;;;5089933;28;20209;-77
2020/12/23 09:45:29;;;;;;;8.30;4.18;;;30.80;34.40;;;;;;5095221;28;20212;-77
2020/12/23 09:47:56;;;;;;;6.65;3.95;;;30.50;34.20;;;;;;5083461;28;20646;-76
2020/12/23 09:50:22;;;;;;;10.00;4.32;;;30.20;34.50;;;;;;5098750;28;20212;-76
2020/12/23 09:52:48;;;;;;;6.38;3.88;;;30.10;34.50;;;;;;5089788;28;20646;-75
2020/12/23 09:55:16;;;;;;;8.15;4.55;;;29.80;34.30;;;;;;5088090;28;20289;-75
2020/12/23 09:57:43;;;;;;;10.25;4.93;;;29.40;34.80;;;;;;5077542;28;20694;-75
2020/12/23 10:00:09;;;;;;;9.15;4.68;;;28.80;34.90;;;;;;5083885;28;20284;-75
2020/12/23 10:02:35;;;;;;;7.80;4.03;;;27.80;34.60;;;;;;5082558;28;20225;-75
2020/12/23 10:05:02;;;;;;;9.27;4.60;;;26.20;35.60;;;;;;5086188;28;20309;-76
2020/12/23 10:07:28;;;;;;;9.52;5.15;;;24.50;37.70;;;;;;5080508;28;20209;-75
2020/12/23 10:09:55;;;;;;;7.38;4.45;;;22.80;39.80;;;;;;5074239;28;20681;-74
2020/12/23 10:12:23;;;;;;;6.63;3.95;;;21.70;42.80;;;;;;5087348;28;20311;-77
2020/12/23 10:14:49;;;;;;;10.55;5.00;;;21.10;44.30;;;;;;5090803;28;20689;-75
2020/12/23 10:17:16;;;;;;;6.53;3.92;;;21.00;44.50;;;;;;5087207;28;20570;-75
2020/12/23 10:19:42;;;;;;;8.50;4.30;;;21.10;45.00;;;;;;5075497;28;20213;-75
2020/12/23 10:22:10;;;;;;;7.70;3.83;;;21.50;45.30;;;;;;5081566;28;20778;-76
2020/12/23 10:24:37;;;;;;;11.85;4.88;;;22.30;44.10;;;;;;5091360;28;20308;-76
2020/12/23 10:27:03;;;;;;;10.20;4.57;;;23.00;43.30;;;;;;5076229;28;20614;-73
2020/12/23 10:29:30;;;;;;;9.77;4.47;;;23.70;42.40;;;;;;5076479;28;20209;-77
2020/12/23 10:31:57;;;;;;;9.20;3.95;;;24.00;41.60;;;;;;5086832;28;20220;-73
2020/12/23 10:34:23;;;;;;;6.57;4.07;;;23.90;41.10;;;;;;5083284;28;20240;-72
2020/12/23 10:36:50;;;;;;;7.72;3.78;;;23.90;41.20;;;;;;5076422;28;20301;-70
2020/12/23 10:39:17;;;;;;;8.20;4.15;;;23.60;41.50;;;;;;5076702;28;20244;-71
2020/12/23 10:41:43;;;;;;;9.48;4.38;;;23.60;41.60;;;;;;5076027;28;20213;-70
2020/12/23 10:44:10;;;;;;;5.95;3.70;;;23.90;41.70;;;;;;5077799;28;20706;-73
2020/12/23 10:46:37;;;;;;;10.27;4.10;;;24.40;40.60;;;;;;5090421;28;20232;-72
2020/12/23 10:49:04;;;;;;;6.90;3.47;;;25.00;40.90;;;;;;5083211;28;20341;-72
2020/12/23 10:51:31;;;;;;;7.85;4.03;;;25.70;39.50;;;;;;5088264;28;20303;-72
2020/12/23 10:53:57;;;;;;;5.93;3.55;;;26.40;38.60;;;;;;5081933;28;20267;-71
2020/12/23 10:56:23;;;;;;;8.57;3.60;;;26.80;37.90;;;;;;5094856;28;20364;-72
2020/12/23 10:58:50;;;;;;;6.45;3.20;;;27.00;37.30;;;;;;5091018;28;20205;-73
2020/12/23 11:01:18;;;;;;;7.20;3.50;;;27.30;36.70;;;;;;5088847;28;20235;-72
2020/12/23 11:03:45;;;;;;;6.18;3.45;;;27.30;36.40;;;;;;5097560;28;20201;-73
2020/12/23 11:06:13;;;;;;;6.85;3.95;;;27.20;36.20;;;;;;5087460;28;20240;-72
2020/12/23 11:08:40;;;;;;;6.13;3.75;;;26.60;35.90;;;;;;5080745;28;20205;-75
2020/12/23 11:11:06;;;;;;;6.47;3.08;;;25.80;36.80;;;;;;5087612;28;20629;-74
2020/12/23 11:13:33;;;;;;;9.55;3.95;;;25.20;37.60;;;;;;5084798;28;20297;-72
2020/12/23 11:16:00;;;;;;;7.10;3.53;;;24.70;38.20;;;;;;5088215;28;20231;-73
2020/12/23 11:18:26;;;;;;;8.05;3.20;;;24.00;38.60;;;;;;5095935;28;20287;-73
2020/12/23 11:20:53;;;;;;;10.60;4.07;;;23.30;39.60;;;;;;5089926;28;20303;-72
2020/12/23 11:23:26;;;;;;;7.75;3.70;;;22.70;40.40;;;;;;5084079;28;20264;-73
2020/12/23 11:25:55;;;;;;;5.95;2.97;;;22.20;41.00;;;;;;5076686;28;20232;-71
2020/12/23 11:28:21;;;;;;;8.55;3.60;;;21.80;41.90;;;;;;5076701;28;20209;-73
2020/12/23 11:30:50;;;;;;;9.65;4.00;;;21.50;42.30;;;;;;5077748;28;20701;-73
2020/12/23 11:33:16;;;;;;;10.20;4.38;;;21.30;42.80;;;;;;5079687;28;20208;-75
2020/12/23 11:35:43;;;;;;;8.93;4.32;;;21.30;42.80;;;;;;5079516;28;20201;-76
2020/12/23 11:38:10;;;;;;;9.82;4.35;;;21.10;42.30;;;;;;5077630;28;20626;-76
2020/12/23 11:40:36;;;;;;;7.05;3.92;;;20.50;42.60;;;;;;5080671;28;20201;-76
2020/12/23 11:43:03;;;;;;;6.25;4.20;;;19.60;43.30;;;;;;5079266;28;20721;-74
2020/12/23 11:45:29;;;;;;;8.85;4.80;;;18.60;45.00;;;;;;5076219;28;20749;-75
2020/12/23 11:47:56;;;;;;;11.03;4.80;;;17.60;46.50;;;;;;5078039;28;20201;-77
2020/12/23 11:50:22;;;;;;;8.53;5.07;;;16.80;48.20;;;;;;5078763;28;20596;-75
2020/12/23 11:52:49;;;;;;;9.43;5.67;;;15.90;49.60;;;;;;5092409;28;20632;-75
2020/12/23 11:55:18;;;;;;;8.80;5.33;;;15.20;50.90;;;;;;5085892;28;20233;-75
2020/12/23 11:57:45;;;;;;;13.80;6.23;;;14.60;52.30;;;;;;5079592;28;20227;-74
2020/12/23 12:00:12;;;;;;;9.93;5.63;;;14.00;53.40;;;;;;5077945;28;20198;-76
2020/12/23 12:02:38;;;;;;;9.03;5.03;;;13.50;54.50;;;;;;5084179;28;20219;-74
2020/12/23 12:05:05;;;;;;;8.63;5.50;;;13.10;55.70;;;;;;5095553;28;20246;-75
2020/12/23 12:07:33;;;;;;;7.07;5.03;;;12.70;56.60;;;;;;5094013;28;20240;-77
2020/12/23 12:10:00;;;;;;;9.77;5.50;;;12.40;57.10;;;;;;5094930;28;20243;-74
2020/12/23 12:12:27;;;;;;;11.20;5.50;;;12.10;58.30;;;;;;5094027;28;20232;-74
2020/12/23 12:14:54;;;;;;;10.00;5.40;;;11.80;59.10;;;;;;5083188;28;20669;-73
2020/12/23 12:17:20;;;;;;;10.77;6.43;;;11.50;60.00;;;;;;5094740;28;20250;-73
2020/12/23 12:19:46;;;;;;;10.17;5.87;;;11.30;60.90;;;;;;5095395;28;20254;-74
2020/12/23 12:22:13;;;;;;;19.20;6.57;;;11.10;62.00;;;;;;5077947;28;20296;-74
2020/12/23 12:24:39;;;;;;;10.83;5.10;;;10.90;63.10;;;;;;5077347;28;20202;-73
2020/12/23 12:27:05;;;;;;;9.97;5.00;;;10.60;64.00;;;;;;5086311;28;20227;-75
2020/12/23 12:29:33;;;;;;;12.07;5.97;;;10.40;65.20;;;;;;5092849;28;20676;-74
2020/12/23 12:31:59;;;;;;;7.57;5.10;;;10.20;66.40;;;;;;5091655;28;20284;-74
2020/12/23 12:34:27;;;;;;;10.20;5.83;;;10.00;67.80;;;;;;5077286;28;20296;-74
2020/12/23 12:36:54;;;;;;;10.80;5.67;;;9.90;71.20;;;;;;5087219;28;20205;-74
2020/12/23 12:39:20;;;;;;;9.07;5.23;;;9.80;73.50;;;;;;5089318;28;20205;-78
2020/12/23 12:41:48;;;;;;;11.00;6.87;;;9.80;75.70;;;;;;5090884;28;20204;-75
2020/12/23 12:44:15;;;;;;;11.30;6.57;;;9.70;78.50;;;;;;5099374;28;20291;-75
2020/12/23 12:46:42;;;;;;;9.27;6.10;;;9.60;81.10;;;;;;5096768;28;20264;-76
2020/12/23 12:49:09;;;;;;;11.13;6.63;;;9.50;83.50;;;;;;5091571;28;20197;-75
2020/12/23 12:51:35;;;;;;;12.70;6.60;;;9.40;85.70;;;;;;5082280;28;20221;-74
2020/12/23 12:54:02;;;;;;;14.07;5.90;;;9.40;88.40;;;;;;5083228;28;20208;-75
2020/12/23 12:56:29;;;;;;;13.17;5.40;;;9.30;90.50;;;;;;5080387;28;20645;-74
2020/12/23 12:58:56;;;;;;;13.17;6.60;;;9.20;91.90;;;;;;5077916;28;20219;-73